Jackson Junction, Iowa
Current Conditions -  °F | °C
As of 1:35 PM on Thursday 27 Nov 2014 (Local Time) from KDEH Reporting Station
Clear Clear  
Wind Chill: -2°   Ceiling: Unl
Heat Index: 10°   Visibility: 10mi
Dew Point: -4°   Wind: 9mph
Humidity: 52%   Direction: 340°NNW
Pressure: 30.4"   Gusts: NA
Location:  43.0382°N, 92.0219°W
Report Text: KDEH 271935Z AUTO 34008KT 10SM CLR M12/M20 A3040 RMK AO2
Loading
Personal Weather Stations






























Interactive Weather Map New forecast layout! Learn more

10-Day Weather Forecast

Advertisements
Track Severe Weather on mobile